»·PEaware :: N126WK KTOA-KAVX

N126WK :: KTOA-KAVX

FLIGHT INFORMATION

Flight Status: Arrived
Operator: Privately registered:
United States
More flights under this callsign
Pilot: Hochu C. (26461)
Aircraft: CSA SportCruiser
(CRUZ)
More flights by this aircraft type
Origin: KTOA Zamperini
United States
Destination: KAVX Catalina
United States
More flights between these airports :: More routes between these airports
Route: KLGB KHHR
File this flight plan on PilotEdge
Remarks: +CW /
Altitude:
(Current/Filed)
2,000ft
Speed:
(Current/Filed)
95kts
Departed: 29-Dec-19 07:31 PM
Arrived: 29-Dec-19 08:11 PM
Distance/Time
Traveled:
24nm/0:40
Distance/Time
To Go:
Arrived

Flight Plot

Page will automatically refresh every two minutes.

Flight plan parsing failed; only flown route is shown


Map Options




Map Legend


Flown Route
Filed Route
Departure Airport
Arrival Airport
Navaid (VOR, NDB)
Fix

Horizontal Profiles

Position Reports

Time Latitude Longitude Heading Altitude Ground
Speed
29-Dec-19 19:16 33.801075 -118.340641 218 105ft 0kts
29-Dec-19 19:17 33.801075 -118.340641 218 105ft 0kts
29-Dec-19 19:19 33.801075 -118.340641 218 105ft 0kts
29-Dec-19 19:20 33.801075 -118.340641 218 105ft 0kts
29-Dec-19 19:21 33.801075 -118.340641 218 105ft 0kts
29-Dec-19 19:22 33.801075 -118.340641 218 105ft 0kts
29-Dec-19 19:23 33.801075 -118.340641 218 105ft 0kts
29-Dec-19 19:24 33.801075 -118.340641 218 105ft 0kts
29-Dec-19 19:25 33.800518 -118.339484 130 105ft 9kts
29-Dec-19 19:26 33.798701 -118.336760 128 107ft 11kts
29-Dec-19 19:27 33.798685 -118.333670 37 101ft 16kts
29-Dec-19 19:28 33.799150 -118.333255 31 100ft 0kts
29-Dec-19 19:29 33.799150 -118.333255 31 100ft 0kts
29-Dec-19 19:30 33.799910 -118.333363 306 98ft 8kts
29-Dec-19 19:31 33.811245 -118.349783 312 806ft 74kts
29-Dec-19 19:32 33.822705 -118.334619 86 1772ft 79kts
29-Dec-19 19:33 33.821482 -118.307351 96 2071ft 83kts
29-Dec-19 19:34 33.819037 -118.278491 95 1816ft 91kts
29-Dec-19 19:35 33.815641 -118.248505 106 1629ft 91kts
29-Dec-19 19:36 33.816103 -118.219502 79 1434ft 88kts
29-Dec-19 19:37 33.815939 -118.189768 116 1227ft 91kts
29-Dec-19 19:37 33.803237 -118.169855 130 1101ft 90kts
29-Dec-19 19:39 33.787031 -118.144412 125 836ft 75kts
29-Dec-19 19:40 33.798116 -118.128334 356 450ft 73kts
29-Dec-19 19:40 33.809132 -118.140937 314 110ft 63kts
29-Dec-19 19:42 33.825229 -118.157334 321 695ft 77kts
29-Dec-19 19:43 33.835039 -118.180195 303 1563ft 93kts
29-Dec-19 19:43 33.848847 -118.200636 308 1542ft 92kts
29-Dec-19 19:44 33.866164 -118.224575 307 1516ft 95kts
29-Dec-19 19:46 33.886703 -118.252441 308 1530ft 95kts
29-Dec-19 19:46 33.902007 -118.269532 324 1158ft 92kts
29-Dec-19 19:47 33.919273 -118.287035 295 625ft 76kts
29-Dec-19 19:48 33.923595 -118.308291 275 400ft 65kts
29-Dec-19 19:49 33.923099 -118.329756 267 56ft 53kts
29-Dec-19 19:50 33.919704 -118.351428 211 750ft 82kts
29-Dec-19 19:51 33.899063 -118.347568 157 1930ft 76kts
29-Dec-19 19:52 33.877072 -118.346760 165 2573ft 97kts
29-Dec-19 19:53 33.847773 -118.337779 166 2528ft 112kts
29-Dec-19 19:54 33.817235 -118.333394 194 2518ft 112kts
29-Dec-19 19:55 33.786590 -118.339879 185 2526ft 112kts
29-Dec-19 19:56 33.755667 -118.342200 167 2480ft 113kts
29-Dec-19 19:57 33.725708 -118.334534 179 2470ft 111kts
29-Dec-19 19:58 33.695273 -118.338254 189 2511ft 109kts
29-Dec-19 19:59 33.665924 -118.348150 192 2574ft 110kts
29-Dec-19 20:00 33.635711 -118.353613 186 2627ft 110kts
29-Dec-19 20:01 33.605565 -118.359599 191 2634ft 110kts
29-Dec-19 20:02 33.575975 -118.368574 195 2640ft 110kts
29-Dec-19 20:03 33.548153 -118.377987 197 2629ft 93kts
29-Dec-19 20:04 33.523346 -118.384348 192 2692ft 91kts
29-Dec-19 20:05 33.498244 -118.389060 189 2578ft 90kts
29-Dec-19 20:06 33.473211 -118.392742 178 2486ft 90kts
29-Dec-19 20:07 33.448872 -118.390167 172 2405ft 79kts
29-Dec-19 20:08 33.426615 -118.389645 196 2186ft 78kts
29-Dec-19 20:09 33.412025 -118.403762 234 1834ft 69kts
29-Dec-19 20:10 33.404243 -118.417068 226 1554ft 18kts
29-Dec-19 20:11 33.403312 -118.415536 101 1548ft 0kts

Navigation Log

Ident Type
Flight plan parsing failed, navigation log unavailable